createdAt,value
2022-12-04T00:09:49.566Z,5.5
2022-12-04T00:19:49.449Z,5.5
2022-12-04T00:29:49.562Z,5.5
2022-12-04T00:39:49.648Z,5.5
2022-12-04T00:49:49.556Z,5.5
2022-12-04T00:59:49.626Z,5.5
2022-12-04T01:10:00.264Z,4.5
2022-12-04T01:20:00.204Z,5
2022-12-04T01:30:00.280Z,5
2022-12-04T01:40:00.197Z,4.5
2022-12-04T01:50:00.282Z,5
2022-12-04T02:00:00.208Z,4.5
2022-12-04T02:10:00.289Z,4.5
2022-12-04T02:20:00.414Z,4.5
2022-12-04T02:30:00.282Z,4.5
2022-12-04T02:40:00.390Z,4.5
2022-12-04T02:50:00.300Z,4.5
2022-12-04T03:00:00.407Z,4.5
2022-12-04T03:10:00.261Z,5
2022-12-04T03:20:00.395Z,5
2022-12-04T03:30:00.477Z,5
2022-12-04T03:40:00.392Z,5
2022-12-04T03:50:00.447Z,5
2022-12-04T04:00:00.582Z,5
2022-12-04T04:10:00.450Z,5
2022-12-04T04:20:00.371Z,4.5
2022-12-04T04:30:00.446Z,4.5
2022-12-04T04:40:00.371Z,4.5
2022-12-04T04:50:00.431Z,4.5
2022-12-04T05:00:00.557Z,4.5
2022-12-04T05:10:00.445Z,4.5
2022-12-04T05:20:00.892Z,5
2022-12-04T05:30:00.435Z,5
2022-12-04T05:40:00.566Z,5
2022-12-04T05:50:00.431Z,6
2022-12-04T06:00:00.548Z,5.5
2022-12-04T06:10:00.421Z,6
2022-12-04T06:20:00.939Z,6
2022-12-04T06:30:00.625Z,5.5
2022-12-04T06:40:00.541Z,6
2022-12-04T06:50:00.612Z,6
2022-12-04T07:00:00.535Z,6
2022-12-04T07:10:00.602Z,6
2022-12-04T07:20:00.536Z,6
2022-12-04T07:30:00.605Z,5.5
2022-12-04T07:40:00.732Z,5.5
2022-12-04T07:50:00.599Z,5.5
2022-12-04T08:00:00.724Z,6
2022-12-04T08:10:00.593Z,6
2022-12-04T08:20:00.729Z,6
2022-12-04T08:30:00.595Z,6
2022-12-04T08:40:00.707Z,6
2022-12-04T08:50:00.589Z,6
2022-12-04T09:00:00.803Z,6
2022-12-04T09:10:01.171Z,6
2022-12-04T09:20:01.532Z,6
2022-12-04T09:30:00.769Z,6.5
2022-12-04T09:40:00.705Z,7
2022-12-04T09:50:00.770Z,7
2022-12-04T10:00:00.976Z,7
2022-12-04T10:10:00.776Z,7
2022-12-04T10:20:00.895Z,7
2022-12-04T10:30:00.831Z,7.5
2022-12-04T10:40:00.895Z,8
2022-12-04T10:50:00.759Z,8
2022-12-04T11:00:00.880Z,9
2022-12-04T11:10:00.768Z,8.5
2022-12-04T11:20:00.890Z,8.5
2022-12-04T11:30:00.736Z,8.5
2022-12-04T11:40:00.878Z,9
2022-12-04T11:50:01.047Z,9
2022-12-04T12:00:00.869Z,8.5
2022-12-04T12:10:00.931Z,8.5
2022-12-04T12:20:00.859Z,8.5
2022-12-04T12:30:00.935Z,8.5
2022-12-04T12:40:00.858Z,8.5
2022-12-04T12:50:00.920Z,9
2022-12-04T13:00:01.038Z,9
2022-12-04T13:10:00.951Z,9
2022-12-04T13:20:04.217Z,9
2022-12-04T13:30:00.936Z,9
2022-12-04T13:40:01.040Z,9
2022-12-04T13:50:05.008Z,8.5
2022-12-04T14:00:01.061Z,8.5
2022-12-04T14:10:00.920Z,9
2022-12-04T14:20:06.015Z,8.5
2022-12-04T14:30:01.101Z,8.5
2022-12-04T14:40:01.025Z,8.5
2022-12-04T14:50:01.107Z,8.5
2022-12-04T15:00:01.020Z,8.5
2022-12-04T15:10:01.104Z,8.5
2022-12-04T15:20:01.012Z,9
2022-12-04T15:30:01.082Z,8.5
2022-12-04T15:40:01.016Z,8.5
2022-12-04T15:50:01.087Z,8.5
2022-12-04T16:00:01.263Z,8.5
2022-12-04T16:10:03.484Z,8.5
2022-12-04T16:20:01.337Z,8.5
2022-12-04T16:30:01.057Z,8.5
2022-12-04T16:40:01.194Z,8.5
2022-12-04T16:50:01.078Z,8.5
2022-12-04T17:00:01.244Z,8.5
2022-12-04T17:10:01.248Z,7.5
2022-12-04T17:20:01.179Z,7.5
2022-12-04T17:30:01.267Z,7.5
2022-12-04T17:40:01.191Z,7.5
2022-12-04T17:50:01.301Z,8
2022-12-04T18:00:01.190Z,8
2022-12-04T18:10:01.335Z,8
2022-12-04T18:20:04.427Z,8
2022-12-04T18:30:01.259Z,8
2022-12-04T18:40:06.202Z,8
2022-12-04T18:50:01.382Z,8
2022-12-04T19:00:01.385Z,8
2022-12-04T19:10:16.573Z,8
2022-12-04T19:20:01.384Z,8
2022-12-04T19:30:01.264Z,8
2022-12-04T19:40:01.413Z,7.5
2022-12-04T19:50:01.274Z,7.5
2022-12-04T20:00:01.748Z,7.5
2022-12-04T20:10:01.648Z,7.5
2022-12-04T20:20:01.394Z,7.5
2022-12-04T20:30:01.452Z,7.5
2022-12-04T20:40:01.441Z,7.5
2022-12-04T20:50:01.445Z,7.5
2022-12-04T21:00:01.520Z,8
2022-12-04T21:10:01.430Z,8
2022-12-04T21:20:05.822Z,8
2022-12-04T21:30:01.455Z,8
2022-12-04T21:40:01.653Z,8
2022-12-04T21:50:01.553Z,8
2022-12-04T22:00:01.558Z,8
2022-12-04T22:10:05.634Z,7.5
2022-12-04T22:20:01.552Z,7.5
2022-12-04T22:30:01.465Z,7.5
2022-12-04T22:40:01.546Z,7.5
2022-12-04T22:50:01.429Z,7.5
2022-12-04T23:00:01.604Z,7.5
2022-12-04T23:10:01.610Z,7.5
2022-12-04T23:20:01.553Z,7.5
2022-12-04T23:30:01.628Z,7
2022-12-04T23:40:01.525Z,7
2022-12-04T23:50:01.614Z,7
